CST,Max TemperatureF,Mean TemperatureF,Min TemperatureF,Max Dew PointF,MeanDew PointF,Min DewpointF,Max Humidity, Mean Humidity, Min Humidity, Max Sea Level PressureIn, Mean Sea Level PressureIn, Min Sea Level PressureIn, Max VisibilityMiles, Mean VisibilityMiles, Min VisibilityMiles, Max Wind SpeedMPH, Mean Wind SpeedMPH, Max Gust SpeedMPH,PrecipitationIn, CloudCover, Events, WindDirDegrees
2013-1-1,16,11,5,5,2,-1,83,71,59,30.36,30.30,30.26,10,10,10,12,5,15,0.00,0,,299
2013-1-2,32,18,4,24,16,1,88,76,63,30.26,30.14,30.08,10,10,8,12,4,15,T,4,Snow,239
2013-1-3,29,19,9,25,13,5,85,76,67,30.42,30.31,30.13,10,10,8,22,10,28,0.00,5,,282
2013-1-4,36,23,10,23,17,5,89,77,59,30.35,30.28,30.23,10,10,9,15,5,,0.00,0,,241
2013-1-5,38,26,13,32,24,11,100,85,70,30.23,30.10,30.00,10,9,4,22,8,28,0.00,4,,221
2013-1-6,26,20,15,18,13,10,88,77,58,30.36,30.24,30.06,10,10,8,21,12,29,0.00,2,,298
2013-1-7,41,27,13,27,22,10,92,73,54,30.31,30.16,30.07,10,10,10,21,8,25,0.00,0,,184
2013-1-8,43,33,23,31,28,22,92,76,60,30.11,30.05,29.96,10,10,10,20,7,24,0.00,1,,178
2013-1-9,44,35,25,32,28,24,92,75,57,30.50,30.38,30.13,10,10,8,20,6,24,0.00,0,,280
2013-1-10,41,33,24,37,32,22,100,80,59,30.47,30.08,29.79,10,6,1,14,6,18,0.17,6,Rain,106
2013-1-11,53,45,37,48,42,36,100,89,77,29.78,29.68,29.59,10,5,0,17,9,23,T,5,Fog,172
2013-1-12,53,37,20,44,24,13,85,72,58,30.11,29.95,29.63,10,8,1,32,14,41,T,5,Snow,289
2013-1-13,20,16,12,9,6,4,84,70,56,30.35,30.20,30.04,10,10,9,22,12,26,T,4,Snow,296
2013-1-14,28,18,7,13,8,3,80,60,39,30.53,30.47,30.37,10,10,10,12,4,17,0.00,0,,287
2013-1-15,32,22,12,15,11,8,92,66,39,30.46,30.34,30.16,10,10,10,13,2,16,0.00,0,,180
2013-1-16,42,29,15,34,23,8,82,67,52,30.16,30.00,29.88,10,10,10,22,9,28,0.00,5,,258
2013-1-17,36,27,17,27,14,6,84,62,39,30.48,30.39,30.17,10,10,10,16,7,22,0.00,1,,318
2013-1-18,53,38,22,31,26,18,84,63,41,30.43,30.12,29.93,10,10,10,28,11,38,0.00,0,,198
2013-1-19,52,36,19,32,27,7,76,60,44,30.22,29.95,29.82,10,10,10,33,14,51,0.00,1,,263
2013-1-20,19,15,10,9,5,1,76,65,53,30.44,30.37,30.24,10,8,2,28,12,33,T,6,Snow,303
2013-1-21,12,7,1,4,-5,-11,80,65,50,30.44,30.37,30.29,10,10,4,25,15,32,T,2,,293
2013-1-22,13,6,-2,0,-4,-7,79,64,48,30.50,30.44,30.39,10,10,10,16,7,20,0.00,3,,277
2013-1-23,30,20,9,12,5,-4,67,57,46,30.53,30.31,30.19,10,10,10,28,12,38,0.00,3,,265
2013-1-24,21,13,4,8,-3,-8,60,49,37,30.70,30.54,30.32,10,10,10,16,9,24,0.00,1,,80
2013-1-25,36,25,14,19,11,3,65,54,43,30.33,30.17,30.07,10,10,10,24,11,30,0.00,3,,265
2013-1-26,31,20,8,14,7,2,73,56,39,30.44,30.36,30.30,10,10,10,13,7,17,0.00,1,,98
2013-1-27,38,34,29,38,28,14,100,75,49,30.29,30.04,29.81,10,10,10,20,11,25,0.36,8,Rain,133
2013-1-28,46,40,33,46,39,34,100,96,92,29.98,29.84,29.68,4,1,0,13,7,16,0.13,8,Fog-Rain-Thunderstorm,118
2013-1-29,59,47,34,57,44,32,100,93,86,29.66,29.58,29.51,10,6,0,37,9,51,0.48,7,Fog-Rain-Thunderstorm,299
2013-1-30,35,25,14,32,21,9,96,85,73,29.84,29.55,29.37,10,4,0,30,16,37,0.29,8,Fog-Rain-Snow,321
2013-1-31,19,11,2,12,0,-8,83,73,63,30.39,30.09,29.81,10,8,2,26,16,35,T,6,Snow,298